sensor_id;sensor_type;location;lat;lon;timestamp;pressure;altitude;pressure_sealevel;temperature;humidity
38285;BME280;24088;42.664;23.354;2023-09-18T00:00:17;95555.94;;;19.78;100.00
38285;BME280;24088;42.664;23.354;2023-09-18T00:01:19;95557.50;;;19.79;100.00
38285;BME280;24088;42.664;23.354;2023-09-18T00:02:20;95559.22;;;19.58;100.00
38285;BME280;24088;42.664;23.354;2023-09-18T00:03:22;95556.72;;;19.69;100.00
38285;BME280;24088;42.664;23.354;2023-09-18T00:04:24;95556.56;;;19.73;100.00
38285;BME280;24088;42.664;23.354;2023-09-18T00:05:25;95556.75;;;19.79;100.00
38285;BME280;24088;42.664;23.354;2023-09-18T00:06:27;95551.94;;;19.79;100.00
38285;BME280;24088;42.664;23.354;2023-09-18T00:07:28;95552.22;;;19.81;100.00
38285;BME280;24088;42.664;23.354;2023-09-18T00:08:28;95549.44;;;19.81;100.00
38285;BME280;24088;42.664;23.354;2023-09-18T00:09:29;95553.16;;;19.78;100.00
38285;BME280;24088;42.664;23.354;2023-09-18T00:10:30;95551.63;;;19.77;100.00
38285;BME280;24088;42.664;23.354;2023-09-18T00:11:31;95544.66;;;19.82;100.00
38285;BME280;24088;42.664;23.354;2023-09-18T00:12:31;95549.78;;;19.83;100.00
38285;BME280;24088;42.664;23.354;2023-09-18T00:13:33;95546.81;;;19.87;100.00
38285;BME280;24088;42.664;23.354;2023-09-18T00:14:33;95542.63;;;19.91;100.00
38285;BME280;24088;42.664;23.354;2023-09-18T00:15:35;95550.34;;;19.96;100.00
38285;BME280;24088;42.664;23.354;2023-09-18T00:16:37;95552.06;;;19.94;100.00
38285;BME280;24088;42.664;23.354;2023-09-18T00:17:39;95539.53;;;19.89;100.00
38285;BME280;24088;42.664;23.354;2023-09-18T00:18:41;95541.06;;;19.90;100.00
38285;BME280;24088;42.664;23.354;2023-09-18T00:19:42;95544.34;;;19.89;100.00
38285;BME280;24088;42.664;23.354;2023-09-18T00:20:43;95543.41;;;19.92;100.00
38285;BME280;24088;42.664;23.354;2023-09-18T00:21:46;95538.31;;;19.81;100.00
38285;BME280;24088;42.664;23.354;2023-09-18T00:22:47;95531.66;;;19.79;100.00
38285;BME280;24088;42.664;23.354;2023-09-18T00:23:49;95540.47;;;19.77;100.00
38285;BME280;24088;42.664;23.354;2023-09-18T00:24:49;95545.91;;;19.81;100.00
38285;BME280;24088;42.664;23.354;2023-09-18T00:25:50;95541.72;;;19.76;100.00
38285;BME280;24088;42.664;23.354;2023-09-18T00:26:51;95533.22;;;19.80;100.00
38285;BME280;24088;42.664;23.354;2023-09-18T00:27:53;95544.38;;;19.70;100.00
38285;BME280;24088;42.664;23.354;2023-09-18T00:28:54;95547.94;;;19.71;100.00
38285;BME280;24088;42.664;23.354;2023-09-18T00:29:55;95545.91;;;19.71;100.00
38285;BME280;24088;42.664;23.354;2023-09-18T00:30:56;95540.81;;;19.70;100.00
38285;BME280;24088;42.664;23.354;2023-09-18T00:31:57;95553.78;;;19.73;100.00
38285;BME280;24088;42.664;23.354;2023-09-18T00:32:59;95543.75;;;19.75;100.00
38285;BME280;24088;42.664;23.354;2023-09-18T00:34:01;95541.88;;;19.72;100.00
38285;BME280;24088;42.664;23.354;2023-09-18T00:35:02;95546.22;;;19.73;100.00
38285;BME280;24088;42.664;23.354;2023-09-18T00:36:03;95550.38;;;19.78;100.00
38285;BME280;24088;42.664;23.354;2023-09-18T00:37:05;95543.41;;;19.73;100.00
38285;BME280;24088;42.664;23.354;2023-09-18T00:38:05;95548.22;;;19.73;100.00
38285;BME280;24088;42.664;23.354;2023-09-18T00:39:07;95549.59;;;19.77;100.00
38285;BME280;24088;42.664;23.354;2023-09-18T00:40:08;95551.94;;;19.79;100.00
38285;BME280;24088;42.664;23.354;2023-09-18T00:41:11;95553.31;;;19.84;100.00
38285;BME280;24088;42.664;23.354;2023-09-18T00:42:11;95546.97;;;19.83;100.00
38285;BME280;24088;42.664;23.354;2023-09-18T00:43:13;95552.06;;;19.85;100.00
38285;BME280;24088;42.664;23.354;2023-09-18T00:44:14;95555.66;;;19.76;100.00
38285;BME280;24088;42.664;23.354;2023-09-18T00:45:15;95547.78;;;19.74;100.00
38285;BME280;24088;42.664;23.354;2023-09-18T00:46:16;95548.97;;;19.83;100.00
38285;BME280;24088;42.664;23.354;2023-09-18T00:47:18;95548.53;;;19.84;100.00
38285;BME280;24088;42.664;23.354;2023-09-18T00:48:18;95549.28;;;19.85;100.00
38285;BME280;24088;42.664;23.354;2023-09-18T00:49:22;95551.00;;;19.82;100.00
38285;BME280;24088;42.664;23.354;2023-09-18T00:50:22;95548.81;;;19.86;100.00
38285;BME280;24088;42.664;23.354;2023-09-18T00:51:24;95550.09;;;19.76;100.00
38285;BME280;24088;42.664;23.354;2023-09-18T00:52:25;95553.03;;;19.72;100.00
38285;BME280;24088;42.664;23.354;2023-09-18T00:53:26;95549.31;;;19.75;100.00
38285;BME280;24088;42.664;23.354;2023-09-18T00:54:28;95553.63;;;19.76;100.00
38285;BME280;24088;42.664;23.354;2023-09-18T00:55:29;95549.59;;;19.77;100.00
38285;BME280;24088;42.664;23.354;2023-09-18T00:56:30;95555.66;;;19.76;100.00
38285;BME280;24088;42.664;23.354;2023-09-18T00:57:33;95555.03;;;19.72;100.00
38285;BME280;24088;42.664;23.354;2023-09-18T00:58:34;95553.66;;;19.67;100.00
38285;BME280;24088;42.664;23.354;2023-09-18T00:59:35;95555.81;;;19.72;100.00
38285;BME280;24088;42.664;23.354;2023-09-18T01:00:36;95555.50;;;19.70;100.00
38285;BME280;24088;42.664;23.354;2023-09-18T01:01:38;95551.47;;;19.71;100.00
38285;BME280;24088;42.664;23.354;2023-09-18T01:02:40;95556.72;;;19.69;100.00
38285;BME280;24088;42.664;23.354;2023-09-18T01:03:41;95557.22;;;19.68;100.00
38285;BME280;24088;42.664;23.354;2023-09-18T01:04:43;95554.75;;;19.70;100.00
38285;BME280;24088;42.664;23.354;2023-09-18T01:05:44;95553.78;;;19.73;100.00
38285;BME280;24088;42.664;23.354;2023-09-18T01:06:45;95559.38;;;19.73;100.00
38285;BME280;24088;42.664;23.354;2023-09-18T01:07:47;95559.53;;;19.69;100.00
38285;BME280;24088;42.664;23.354;2023-09-18T01:08:47;95565.72;;;19.64;100.00
38285;BME280;24088;42.664;23.354;2023-09-18T01:09:53;95562.16;;;19.73;100.00
38285;BME280;24088;42.664;23.354;2023-09-18T01:10:56;95558.91;;;19.65;100.00
38285;BME280;24088;42.664;23.354;2023-09-18T01:12:04;95563.09;;;19.70;100.00
38285;BME280;24088;42.664;23.354;2023-09-18T01:13:07;95557.97;;;19.68;100.00
38285;BME280;24088;42.664;23.354;2023-09-18T01:14:14;95558.59;;;19.72;100.00
38285;BME280;24088;42.664;23.354;2023-09-18T01:15:18;95562.91;;;19.73;100.00
38285;BME280;24088;42.664;23.354;2023-09-18T01:16:24;95563.56;;;19.68;100.00
38285;BME280;24088;42.664;23.354;2023-09-18T01:17:25;95566.03;;;19.66;100.00
38285;BME280;24088;42.664;23.354;2023-09-18T01:18:27;95558.59;;;19.63;100.00
38285;BME280;24088;42.664;23.354;2023-09-18T01:19:37;95566.63;;;19.43;100.00
38285;BME280;24088;42.664;23.354;2023-09-18T01:20:40;95561.81;;;19.43;100.00
38285;BME280;24088;42.664;23.354;2023-09-18T01:21:40;95556.41;;;19.40;100.00
38285;BME280;24088;42.664;23.354;2023-09-18T01:22:43;95565.72;;;19.37;100.00
38285;BME280;24088;42.664;23.354;2023-09-18T01:23:44;95561.69;;;19.38;100.00
38285;BME280;24088;42.664;23.354;2023-09-18T01:24:46;95561.38;;;19.45;100.00
38285;BME280;24088;42.664;23.354;2023-09-18T01:25:47;95554.09;;;19.47;100.00
38285;BME280;24088;42.664;23.354;2023-09-18T01:26:49;95557.03;;;19.44;100.00
38285;BME280;24088;42.664;23.354;2023-09-18T01:27:49;95557.34;;;19.46;100.00
38285;BME280;24088;42.664;23.354;2023-09-18T01:28:52;95550.88;;;19.49;100.00
38285;BME280;24088;42.664;23.354;2023-09-18T01:29:52;95556.25;;;19.43;100.00
38285;BME280;24088;42.664;23.354;2023-09-18T01:30:54;95556.72;;;19.42;100.00
38285;BME280;24088;42.664;23.354;2023-09-18T01:31:55;95551.94;;;19.42;100.00
38285;BME280;24088;42.664;23.354;2023-09-18T01:32:56;95557.22;;;19.40;100.00
38285;BME280;24088;42.664;23.354;2023-09-18T01:33:57;95562.44;;;19.38;100.00
38285;BME280;24088;42.664;23.354;2023-09-18T01:34:59;95555.97;;;19.41;100.00
38285;BME280;24088;42.664;23.354;2023-09-18T01:36:00;95563.22;;;19.48;100.00
38285;BME280;24088;42.664;23.354;2023-09-18T01:37:03;95562.16;;;19.45;100.00
38285;BME280;24088;42.664;23.354;2023-09-18T01:38:05;95560.63;;;19.44;100.00
38285;BME280;24088;42.664;23.354;2023-09-18T01:39:10;95557.84;;;19.44;100.00
38285;BME280;24088;42.664;23.354;2023-09-18T01:40:11;95564.47;;;19.47;100.00
38285;BME280;24088;42.664;23.354;2023-09-18T01:41:13;95557.34;;;19.46;100.00
38285;BME280;24088;42.664;23.354;2023-09-18T01:42:13;95555.50;;;19.43;100.00
38285;BME280;24088;42.664;23.354;2023-09-18T01:43:15;95558.75;;;19.41;100.00
38285;BME280;24088;42.664;23.354;2023-09-18T01:44:16;95562.31;;;19.42;100.00
38285;BME280;24088;42.664;23.354;2023-09-18T01:45:17;95565.09;;;19.42;100.00
38285;BME280;24088;42.664;23.354;2023-09-18T01:46:18;95565.84;;;19.42;100.00
38285;BME280;24088;42.664;23.354;2023-09-18T01:47:20;95564.94;;;19.36;100.00
38285;BME280;24088;42.664;23.354;2023-09-18T01:48:21;95559.81;;;19.35;100.00
38285;BME280;24088;42.664;23.354;2023-09-18T01:49:26;95563.06;;;19.33;100.00
38285;BME280;24088;42.664;23.354;2023-09-18T01:50:27;95563.84;;;19.34;100.00
38285;BME280;24088;42.664;23.354;2023-09-18T01:51:28;95561.69;;;19.38;100.00
38285;BME280;24088;42.664;23.354;2023-09-18T01:52:29;95559.81;;;19.35;100.00
38285;BME280;24088;42.664;23.354;2023-09-18T01:53:32;95560.75;;;19.32;100.00
38285;BME280;24088;42.664;23.354;2023-09-18T01:54:33;95561.84;;;19.25;100.00
38285;BME280;24088;42.664;23.354;2023-09-18T01:55:34;95559.19;;;19.21;100.00
38285;BME280;24088;42.664;23.354;2023-09-18T01:56:35;95558.56;;;19.26;100.00
38285;BME280;24088;42.664;23.354;2023-09-18T01:57:36;95565.38;;;19.25;100.00
38285;BME280;24088;42.664;23.354;2023-09-18T01:58:37;95555.16;;;19.22;100.00
38285;BME280;24088;42.664;23.354;2023-09-18T01:59:38;95564.91;;;19.27;100.00
38285;BME280;24088;42.664;23.354;2023-09-18T02:00:41;95559.81;;;19.16;100.00
38285;BME280;24088;42.664;23.354;2023-09-18T02:01:41;95563.50;;;19.13;100.00
38285;BME280;24088;42.664;23.354;2023-09-18T02:02:43;95567.25;;;19.19;100.00
38285;BME280;24088;42.664;23.354;2023-09-18T02:03:43;95562.75;;;19.22;100.00
38285;BME280;24088;42.664;23.354;2023-09-18T02:04:46;95567.41;;;19.25;100.00
38285;BME280;24088;42.664;23.354;2023-09-18T02:05:46;95575.59;;;19.29;100.00
38285;BME280;24088;42.664;23.354;2023-09-18T02:06:48;95568.16;;;19.25;100.00
38285;BME280;24088;42.664;23.354;2023-09-18T02:07:49;95574.84;;;19.28;100.00
38285;BME280;24088;42.664;23.354;2023-09-18T02:08:52;95576.38;;;19.29;100.00
38285;BME280;24088;42.664;23.354;2023-09-18T02:09:55;95571.56;;;19.30;100.00
38285;BME280;24088;42.664;23.354;2023-09-18T02:10:57;95571.56;;;19.30;100.00
38285;BME280;24088;42.664;23.354;2023-09-18T02:11:57;95569.25;;;19.28;100.00
38285;BME280;24088;42.664;23.354;2023-09-18T02:12:59;95571.56;;;19.30;100.00
38285;BME280;24088;42.664;23.354;2023-09-18T02:13:59;95574.34;;;19.30;100.00
38285;BME280;24088;42.664;23.354;2023-09-18T02:15:01;95570.19;;;19.25;100.00
38285;BME280;24088;42.664;23.354;2023-09-18T02:16:05;95573.25;;;19.27;100.00
38285;BME280;24088;42.664;23.354;2023-09-18T02:17:07;95572.50;;;19.26;100.00
38285;BME280;24088;42.664;23.354;2023-09-18T02:18:07;95571.72;;;19.26;100.00
38285;BME280;24088;42.664;23.354;2023-09-18T02:19:10;95568.94;;;19.35;100.00
38285;BME280;24088;42.664;23.354;2023-09-18T02:20:11;95577.16;;;19.39;100.00
38285;BME280;24088;42.664;23.354;2023-09-18T02:21:18;95578.84;;;19.36;100.00
38285;BME280;24088;42.664;23.354;2023-09-18T02:22:19;95574.69;;;19.32;100.00
38285;BME280;24088;42.664;23.354;2023-09-18T02:23:21;95569.13;;;19.32;100.00
38285;BME280;24088;42.664;23.354;2023-09-18T02:24:22;95570.81;;;19.29;100.00
38285;BME280;24088;42.664;23.354;2023-09-18T02:25:24;95569.56;;;19.21;100.00
38285;BME280;24088;42.664;23.354;2023-09-18T02:26:26;95572.66;;;19.23;100.00
38285;BME280;24088;42.664;23.354;2023-09-18T02:27:27;95569.72;;;19.26;100.00
38285;BME280;24088;42.664;23.354;2023-09-18T02:28:28;95573.72;;;19.25;100.00
38285;BME280;24088;42.664;23.354;2023-09-18T02:29:29;95563.69;;;19.28;100.00
38285;BME280;24088;42.664;23.354;2023-09-18T02:30:30;95571.72;;;19.26;100.00
38285;BME280;24088;42.664;23.354;2023-09-18T02:31:31;95565.09;;;19.23;100.00
38285;BME280;24088;42.664;23.354;2023-09-18T02:32:32;95567.69;;;19.27;100.00
38285;BME280;24088;42.664;23.354;2023-09-18T02:33:34;95572.50;;;19.26;100.00
38285;BME280;24088;42.664;23.354;2023-09-18T02:34:34;95570.19;;;19.25;100.00
38285;BME280;24088;42.664;23.354;2023-09-18T02:35:36;95570.66;;;19.23;100.00
38285;BME280;24088;42.664;23.354;2023-09-18T02:36:36;95567.41;;;19.16;100.00
38285;BME280;24088;42.664;23.354;2023-09-18T02:37:38;95572.81;;;19.10;100.00
38285;BME280;24088;42.664;23.354;2023-09-18T02:38:38;95570.16;;;19.07;100.00
38285;BME280;24088;42.664;23.354;2023-09-18T02:39:41;95567.19;;;19.01;100.00
38285;BME280;24088;42.664;23.354;2023-09-18T02:40:42;95573.88;;;19.04;100.00
38285;BME280;24088;42.664;23.354;2023-09-18T02:41:43;95572.47;;;18.99;100.00
38285;BME280;24088;42.664;23.354;2023-09-18T02:42:44;95570.94;;;18.98;100.00
38285;BME280;24088;42.664;23.354;2023-09-18T02:43:45;95568.91;;;18.98;100.00
38285;BME280;24088;42.664;23.354;2023-09-18T02:44:46;95563.78;;;18.97;100.00
38285;BME280;24088;42.664;23.354;2023-09-18T02:45:47;95566.44;;;19.00;100.00
38285;BME280;24088;42.664;23.354;2023-09-18T02:46:48;95572.00;;;19.00;100.00
38285;BME280;24088;42.664;23.354;2023-09-18T02:47:49;95566.75;;;19.02;100.00
38285;BME280;24088;42.664;23.354;2023-09-18T02:48:50;95570.78;;;19.01;100.00
38285;BME280;24088;42.664;23.354;2023-09-18T02:49:51;95565.03;;;18.96;100.00
38285;BME280;24088;42.664;23.354;2023-09-18T02:50:52;95563.63;;;18.91;100.00
38285;BME280;24088;42.664;23.354;2023-09-18T02:51:53;95567.81;;;18.87;100.00
38285;BME280;24088;42.664;23.354;2023-09-18T02:52:54;95570.75;;;18.92;100.00
38285;BME280;24088;42.664;23.354;2023-09-18T02:53:55;95569.84;;;18.95;100.00
38285;BME280;24088;42.664;23.354;2023-09-18T02:54:57;95570.75;;;18.92;100.00
38285;BME280;24088;42.664;23.354;2023-09-18T02:55:59;95573.69;;;18.89;100.00
38285;BME280;24088;42.664;23.354;2023-09-18T02:56:59;95564.56;;;18.88;100.00
38285;BME280;24088;42.664;23.354;2023-09-18T02:58:01;95569.69;;;18.90;100.00
38285;BME280;24088;42.664;23.354;2023-09-18T02:59:02;95565.31;;;18.80;100.00
38285;BME280;24088;42.664;23.354;2023-09-18T03:00:04;95568.72;;;18.84;100.00
38285;BME280;24088;42.664;23.354;2023-09-18T03:01:06;95569.50;;;18.84;100.00
38285;BME280;24088;42.664;23.354;2023-09-18T03:02:08;95568.72;;;18.84;100.00
38285;BME280;24088;42.664;23.354;2023-09-18T03:03:08;95576.28;;;18.83;100.00
38285;BME280;24088;42.664;23.354;2023-09-18T03:04:10;95572.28;;;18.84;100.00
38285;BME280;24088;42.664;23.354;2023-09-18T03:05:11;95574.59;;;18.86;100.00
38285;BME280;24088;42.664;23.354;2023-09-18T03:06:12;95574.91;;;18.88;100.00
38285;BME280;24088;42.664;23.354;2023-09-18T03:07:13;95574.91;;;18.88;100.00
38285;BME280;24088;42.664;23.354;2023-09-18T03:08:16;95577.09;;;18.93;100.00
38285;BME280;24088;42.664;23.354;2023-09-18T03:09:16;95573.38;;;18.87;100.00
38285;BME280;24088;42.664;23.354;2023-09-18T03:10:20;95579.69;;;18.87;100.00
38285;BME280;24088;42.664;23.354;2023-09-18T03:11:21;95573.84;;;18.85;100.00
38285;BME280;24088;42.664;23.354;2023-09-18T03:12:27;95579.22;;;18.80;100.00
38285;BME280;24088;42.664;23.354;2023-09-18T03:13:30;95569.34;;;18.88;100.00
38285;BME280;24088;42.664;23.354;2023-09-18T03:14:31;95574.13;;;18.87;100.00
38285;BME280;24088;42.664;23.354;2023-09-18T03:15:32;95573.34;;;18.77;100.00
38285;BME280;24088;42.664;23.354;2023-09-18T03:16:33;95575.25;;;18.90;100.00
38285;BME280;24088;42.664;23.354;2023-09-18T03:17:34;95571.38;;;18.96;100.00
38285;BME280;24088;42.664;23.354;2023-09-18T03:18:35;95565.81;;;18.96;100.00
38285;BME280;24088;42.664;23.354;2023-09-18T03:19:36;95575.09;;;18.93;100.00
38285;BME280;24088;42.664;23.354;2023-09-18T03:20:37;95568.44;;;18.91;100.00
38285;BME280;24088;42.664;23.354;2023-09-18T03:21:38;95571.38;;;18.96;100.00
38285;BME280;24088;42.664;23.354;2023-09-18T03:22:40;95575.72;;;18.97;100.00
38285;BME280;24088;42.664;23.354;2023-09-18T03:23:40;95572.47;;;18.90;100.00
38285;BME280;24088;42.664;23.354;2023-09-18T03:24:41;95579.56;;;18.91;100.00
38285;BME280;24088;42.664;23.354;2023-09-18T03:25:44;95577.25;;;18.89;100.00
38285;BME280;24088;42.664;23.354;2023-09-18T03:26:44;95572.75;;;18.92;100.00
38285;BME280;24088;42.664;23.354;2023-09-18T03:27:46;95572.47;;;18.90;100.00
38285;BME280;24088;42.664;23.354;2023-09-18T03:28:46;95562.41;;;18.92;100.00
38285;BME280;24088;42.664;23.354;2023-09-18T03:29:48;95556.53;;;18.90;100.00
38285;BME280;24088;42.664;23.354;2023-09-18T03:30:49;95565.50;;;18.94;100.00
38285;BME280;24088;42.664;23.354;2023-09-18T03:31:50;95568.25;;;18.76;100.00
38285;BME280;24088;42.664;23.354;2023-09-18T03:32:51;95568.09;;;18.80;100.00
38285;BME280;24088;42.664;23.354;2023-09-18T03:33:53;95563.91;;;18.75;100.00
38285;BME280;24088;42.664;23.354;2023-09-18T03:34:53;95561.28;;;18.71;100.00
38285;BME280;24088;42.664;23.354;2023-09-18T03:35:55;95568.41;;;18.72;100.00
38285;BME280;24088;42.664;23.354;2023-09-18T03:36:58;95555.06;;;18.67;100.00
38285;BME280;24088;42.664;23.354;2023-09-18T03:37:59;95560.63;;;18.67;100.00
38285;BME280;24088;42.664;23.354;2023-09-18T03:39:00;95561.22;;;18.62;100.00
38285;BME280;24088;42.664;23.354;2023-09-18T03:40:01;95561.53;;;18.64;100.00
38285;BME280;24088;42.664;23.354;2023-09-18T03:41:04;95560.31;;;18.65;100.00
38285;BME280;24088;42.664;23.354;2023-09-18T03:42:06;95554.75;;;18.65;100.00
38285;BME280;24088;42.664;23.354;2023-09-18T03:43:06;95558.28;;;18.66;100.00
38285;BME280;24088;42.664;23.354;2023-09-18T03:44:08;95557.06;;;18.67;100.00
38285;BME280;24088;42.664;23.354;2023-09-18T03:45:10;95555.03;;;18.58;100.00
38285;BME280;24088;42.664;23.354;2023-09-18T03:46:11;95554.88;;;18.62;100.00
38285;BME280;24088;42.664;23.354;2023-09-18T03:47:12;95557.03;;;18.58;100.00
38285;BME280;24088;42.664;23.354;2023-09-18T03:48:13;95557.03;;;18.58;100.00
38285;BME280;24088;42.664;23.354;2023-09-18T03:49:14;95558.13;;;18.60;100.00
38285;BME280;24088;42.664;23.354;2023-09-18T03:50:15;95555.56;;;18.75;100.00
38285;BME280;24088;42.664;23.354;2023-09-18T03:51:15;95554.78;;;18.74;100.00
38285;BME280;24088;42.664;23.354;2023-09-18T03:52:18;95561.94;;;18.85;100.00
38285;BME280;24088;42.664;23.354;2023-09-18T03:53:19;95554.19;;;18.80;100.00
38285;BME280;24088;42.664;23.354;2023-09-18T03:54:21;95548.00;;;18.75;100.00
38285;BME280;24088;42.664;23.354;2023-09-18T03:55:21;95547.84;;;18.70;100.00
38285;BME280;24088;42.664;23.354;2023-09-18T03:56:24;95546.59;;;18.71;100.00
38285;BME280;24088;42.664;23.354;2023-09-18T03:57:25;95545.94;;;18.67;100.00
38285;BME280;24088;42.664;23.354;2023-09-18T03:58:27;95547.63;;;18.55;100.00
38285;BME280;24088;42.664;23.354;2023-09-18T03:59:27;95545.72;;;18.43;100.00
38285;BME280;24088;42.664;23.354;2023-09-18T04:00:29;95547.41;;;18.40;100.00
38285;BME280;24088;42.664;23.354;2023-09-18T04:01:29;95553.69;;;18.32;100.00
38285;BME280;24088;42.664;23.354;2023-09-18T04:02:31;95546.78;;;18.45;100.00
38285;BME280;24088;42.664;23.354;2023-09-18T04:03:31;95547.41;;;18.40;100.00
38285;BME280;24088;42.664;23.354;2023-09-18T04:04:32;95554.19;;;18.39;100.00
38285;BME280;24088;42.664;23.354;2023-09-18T04:05:33;95556.38;;;18.44;100.00
38285;BME280;24088;42.664;23.354;2023-09-18T04:06:37;95548.47;;;18.34;100.00
38285;BME280;24088;42.664;23.354;2023-09-18T04:07:39;95556.22;;;18.39;100.00
38285;BME280;24088;42.664;23.354;2023-09-18T04:08:40;95550.81;;;18.44;100.00
38285;BME280;24088;42.664;23.354;2023-09-18T04:09:41;95554.50;;;18.41;100.00
38285;BME280;24088;42.664;23.354;2023-09-18T04:10:42;95549.44;;;18.49;100.00
38285;BME280;24088;42.664;23.354;2023-09-18T04:11:46;95551.16;;;18.46;100.00
38285;BME280;24088;42.664;23.354;2023-09-18T04:12:47;95546.78;;;18.45;100.00
38285;BME280;24088;42.664;23.354;2023-09-18T04:13:50;95551.72;;;18.41;100.00
38285;BME280;24088;42.664;23.354;2023-09-18T04:14:51;95558.34;;;18.35;100.00
38285;BME280;24088;42.664;23.354;2023-09-18T04:15:52;95555.56;;;18.35;100.00
38285;BME280;24088;42.664;23.354;2023-09-18T04:16:56;95551.41;;;18.39;100.00
38285;BME280;24088;42.664;23.354;2023-09-18T04:17:58;95561.28;;;18.40;100.00
38285;BME280;24088;42.664;23.354;2023-09-18T04:18:59;95553.59;;;18.44;100.00
38285;BME280;24088;42.664;23.354;2023-09-18T04:20:00;95558.97;;;18.39;100.00
38285;BME280;24088;42.664;23.354;2023-09-18T04:21:01;95560.84;;;18.42;100.00
38285;BME280;24088;42.664;23.354;2023-09-18T04:22:03;95552.06;;;18.43;100.00
38285;BME280;24088;42.664;23.354;2023-09-18T04:23:20;95559.28;;;18.41;100.00
38285;BME280;24088;42.664;23.354;2023-09-18T04:24:21;95567.19;;;18.42;100.00
38285;BME280;24088;42.664;23.354;2023-09-18T04:25:22;95561.75;;;18.39;100.00
38285;BME280;24088;42.664;23.354;2023-09-18T04:26:23;95561.75;;;18.39;100.00
38285;BME280;24088;42.664;23.354;2023-09-18T04:27:25;95563.91;;;18.35;100.00
38285;BME280;24088;42.664;23.354;2023-09-18T04:28:27;95564.69;;;18.35;100.00
38285;BME280;24088;42.664;23.354;2023-09-18T04:29:27;95570.84;;;18.30;100.00
38285;BME280;24088;42.664;23.354;2023-09-18T04:30:29;95564.78;;;18.22;100.00
38285;BME280;24088;42.664;23.354;2023-09-18T04:31:29;95565.41;;;18.26;100.00
38285;BME280;24088;42.664;23.354;2023-09-18T04:32:31;95568.03;;;18.21;100.00
38285;BME280;24088;42.664;23.354;2023-09-18T04:33:31;95568.47;;;18.19;100.00
38285;BME280;24088;42.664;23.354;2023-09-18T04:34:33;95570.50;;;18.28;100.00
38285;BME280;24088;42.664;23.354;2023-09-18T04:35:35;95569.28;;;18.29;100.00
38285;BME280;24088;42.664;23.354;2023-09-18T04:36:38;95570.25;;;18.35;100.00
38285;BME280;24088;42.664;23.354;2023-09-18T04:37:38;95563.91;;;18.35;100.00
38285;BME280;24088;42.664;23.354;2023-09-18T04:38:40;95568.88;;;18.40;100.00
38285;BME280;24088;42.664;23.354;2023-09-18T04:39:40;95566.69;;;18.35;100.00
38285;BME280;24088;42.664;23.354;2023-09-18T04:40:42;95563.88;;;18.25;100.00
38285;BME280;24088;42.664;23.354;2023-09-18T04:41:42;95565.16;;;18.34;100.00
38285;BME280;24088;42.664;23.354;2023-09-18T04:42:44;95570.56;;;18.37;100.00
38285;BME280;24088;42.664;23.354;2023-09-18T04:43:46;95567.31;;;18.39;100.00
38285;BME280;24088;42.664;23.354;2023-09-18T04:44:46;95569.63;;;18.40;100.00
38285;BME280;24088;42.664;23.354;2023-09-18T04:45:48;95579.38;;;18.45;100.00
38285;BME280;24088;42.664;23.354;2023-09-18T04:46:48;95574.59;;;18.45;100.00
38285;BME280;24088;42.664;23.354;2023-09-18T04:47:50;95568.41;;;18.41;100.00
38285;BME280;24088;42.664;23.354;2023-09-18T04:48:50;95577.19;;;18.40;100.00
38285;BME280;24088;42.664;23.354;2023-09-18T04:49:52;95575.84;;;18.44;100.00
38285;BME280;24088;42.664;23.354;2023-09-18T04:50:52;95574.59;;;18.45;100.00
38285;BME280;24088;42.664;23.354;2023-09-18T04:51:54;95569.34;;;18.38;100.00
38285;BME280;24088;42.664;23.354;2023-09-18T04:52:55;95564.84;;;18.41;100.00
38285;BME280;24088;42.664;23.354;2023-09-18T04:53:57;95566.97;;;18.27;100.00
38285;BME280;24088;42.664;23.354;2023-09-18T04:54:58;95573.44;;;18.24;100.00
38285;BME280;24088;42.664;23.354;2023-09-18T04:55:59;95569.69;;;18.18;100.00
38285;BME280;24088;42.664;23.354;2023-09-18T04:57:00;95560.06;;;18.41;100.00
38285;BME280;24088;42.664;23.354;2023-09-18T04:58:04;95571.50;;;18.43;100.00
38285;BME280;24088;42.664;23.354;2023-09-18T04:59:05;95566.13;;;18.49;100.00
38285;BME280;24088;42.664;23.354;2023-09-18T05:00:07;95564.91;;;18.50;100.00
38285;BME280;24088;42.664;23.354;2023-09-18T05:01:08;95566.09;;;18.40;100.00
38285;BME280;24088;42.664;23.354;2023-09-18T05:02:11;95560.19;;;18.29;100.00
38285;BME280;24088;42.664;23.354;2023-09-18T05:03:12;95567.41;;;18.26;100.00
38285;BME280;24088;42.664;23.354;2023-09-18T05:04:13;95565.22;;;18.52;100.00
38285;BME280;24088;42.664;23.354;2023-09-18T05:05:14;95559.81;;;18.58;100.00
38285;BME280;24088;42.664;23.354;2023-09-18T05:06:15;95558.75;;;18.64;100.00
38285;BME280;24088;42.664;23.354;2023-09-18T05:07:17;95561.28;;;18.40;100.00
38285;BME280;24088;42.664;23.354;2023-09-18T05:08:18;95561.13;;;18.35;100.00
38285;BME280;24088;42.664;23.354;2023-09-18T05:09:19;95561.97;;;18.53;100.00
38285;BME280;24088;42.664;23.354;2023-09-18T05:10:20;95559.50;;;18.56;100.00
38285;BME280;24088;42.664;23.354;2023-09-18T05:11:21;95562.91;;;18.50;100.00
38285;BME280;24088;42.664;23.354;2023-09-18T05:12:22;95564.59;;;18.57;100.00
38285;BME280;24088;42.664;23.354;2023-09-18T05:13:25;95562.06;;;18.72;100.00
38285;BME280;24088;42.664;23.354;2023-09-18T05:14:25;95564.88;;;18.81;100.00
38285;BME280;24088;42.664;23.354;2023-09-18T05:15:27;95556.06;;;18.83;100.00
38285;BME280;24088;42.664;23.354;2023-09-18T05:16:29;95563.19;;;18.93;100.00
38285;BME280;24088;42.664;23.354;2023-09-18T05:18:52;95562.88;;;19.00;100.00